sensor_id;sensor_type;location;lat;lon;timestamp;P1;durP1;ratioP1;P2;durP2;ratioP2
23115;SDS011;11727;52.134;5.052;2023-01-01T00:01:06;26.35;;;12.55;;
23115;SDS011;11727;52.134;5.052;2023-01-01T00:03:32;27.30;;;14.50;;
23115;SDS011;11727;52.134;5.052;2023-01-01T00:05:58;33.58;;;14.55;;
23115;SDS011;11727;52.134;5.052;2023-01-01T00:08:24;18.77;;;10.38;;
23115;SDS011;11727;52.134;5.052;2023-01-01T00:10:49;22.83;;;11.20;;
23115;SDS011;11727;52.134;5.052;2023-01-01T00:13:15;28.25;;;11.70;;
23115;SDS011;11727;52.134;5.052;2023-01-01T00:15:40;21.45;;;10.75;;
23115;SDS011;11727;52.134;5.052;2023-01-01T00:18:06;22.20;;;9.52;;
23115;SDS011;11727;52.134;5.052;2023-01-01T00:20:31;18.17;;;9.55;;
23115;SDS011;11727;52.134;5.052;2023-01-01T00:22:57;17.83;;;8.77;;
23115;SDS011;11727;52.134;5.052;2023-01-01T00:25:23;26.38;;;9.30;;
23115;SDS011;11727;52.134;5.052;2023-01-01T00:27:49;20.10;;;8.02;;
23115;SDS011;11727;52.134;5.052;2023-01-01T00:30:15;17.88;;;7.97;;
23115;SDS011;11727;52.134;5.052;2023-01-01T00:32:41;15.25;;;7.25;;
23115;SDS011;11727;52.134;5.052;2023-01-01T00:35:06;13.95;;;6.75;;
23115;SDS011;11727;52.134;5.052;2023-01-01T00:37:32;17.90;;;8.30;;
23115;SDS011;11727;52.134;5.052;2023-01-01T00:39:58;17.05;;;6.60;;
23115;SDS011;11727;52.134;5.052;2023-01-01T00:42:24;18.38;;;6.22;;
23115;SDS011;11727;52.134;5.052;2023-01-01T00:44:49;14.77;;;5.38;;
23115;SDS011;11727;52.134;5.052;2023-01-01T00:47:15;14.93;;;4.88;;
23115;SDS011;11727;52.134;5.052;2023-01-01T00:49:40;17.80;;;6.57;;
23115;SDS011;11727;52.134;5.052;2023-01-01T00:52:06;14.45;;;6.10;;
23115;SDS011;11727;52.134;5.052;2023-01-01T00:54:31;24.60;;;10.60;;
23115;SDS011;11727;52.134;5.052;2023-01-01T00:56:57;11.52;;;4.75;;
23115;SDS011;11727;52.134;5.052;2023-01-01T00:59:23;10.20;;;4.07;;
23115;SDS011;11727;52.134;5.052;2023-01-01T01:01:48;13.40;;;3.92;;
23115;SDS011;11727;52.134;5.052;2023-01-01T01:04:14;6.60;;;3.13;;
23115;SDS011;11727;52.134;5.052;2023-01-01T01:06:39;7.82;;;3.05;;
23115;SDS011;11727;52.134;5.052;2023-01-01T01:09:06;8.52;;;2.88;;
23115;SDS011;11727;52.134;5.052;2023-01-01T01:11:31;5.90;;;2.60;;
23115;SDS011;11727;52.134;5.052;2023-01-01T01:13:57;8.93;;;3.00;;
23115;SDS011;11727;52.134;5.052;2023-01-01T01:18:51;12.40;;;3.40;;
23115;SDS011;11727;52.134;5.052;2023-01-01T01:23:44;7.35;;;2.35;;
23115;SDS011;11727;52.134;5.052;2023-01-01T01:26:14;8.75;;;2.85;;
23115;SDS011;11727;52.134;5.052;2023-01-01T01:28:42;10.98;;;2.78;;
23115;SDS011;11727;52.134;5.052;2023-01-01T01:31:08;5.93;;;2.50;;
23115;SDS011;11727;52.134;5.052;2023-01-01T01:33:34;6.25;;;1.98;;
23115;SDS011;11727;52.134;5.052;2023-01-01T01:36:00;7.60;;;2.20;;
23115;SDS011;11727;52.134;5.052;2023-01-01T01:38:26;7.60;;;2.25;;
23115;SDS011;11727;52.134;5.052;2023-01-01T01:40:52;20.63;;;2.85;;
23115;SDS011;11727;52.134;5.052;2023-01-01T01:46:13;11.75;;;2.85;;
23115;SDS011;11727;52.134;5.052;2023-01-01T01:48:47;3.15;;;1.40;;
23115;SDS011;11727;52.134;5.052;2023-01-01T01:51:15;4.18;;;1.63;;
23115;SDS011;11727;52.134;5.052;2023-01-01T01:53:47;10.35;;;1.52;;
23115;SDS011;11727;52.134;5.052;2023-01-01T01:56:17;7.68;;;1.90;;
23115;SDS011;11727;52.134;5.052;2023-01-01T01:58:48;8.98;;;2.10;;
23115;SDS011;11727;52.134;5.052;2023-01-01T02:01:14;5.60;;;1.65;;
23115;SDS011;11727;52.134;5.052;2023-01-01T02:03:54;6.32;;;2.20;;
23115;SDS011;11727;52.134;5.052;2023-01-01T02:06:24;10.50;;;1.75;;
23115;SDS011;11727;52.134;5.052;2023-01-01T02:08:53;3.97;;;1.38;;
23115;SDS011;11727;52.134;5.052;2023-01-01T02:11:20;7.97;;;1.88;;
23115;SDS011;11727;52.134;5.052;2023-01-01T02:13:46;3.90;;;1.45;;
23115;SDS011;11727;52.134;5.052;2023-01-01T02:16:12;2.97;;;0.80;;
23115;SDS011;11727;52.134;5.052;2023-01-01T02:21:36;4.13;;;1.17;;
23115;SDS011;11727;52.134;5.052;2023-01-01T02:29:51;6.13;;;1.38;;
23115;SDS011;11727;52.134;5.052;2023-01-01T02:32:44;13.40;;;2.42;;
23115;SDS011;11727;52.134;5.052;2023-01-01T02:35:13;4.93;;;1.10;;
23115;SDS011;11727;52.134;5.052;2023-01-01T02:38:16;8.13;;;1.40;;
23115;SDS011;11727;52.134;5.052;2023-01-01T02:40:59;2.70;;;0.90;;
23115;SDS011;11727;52.134;5.052;2023-01-01T02:43:29;3.90;;;1.60;;
23115;SDS011;11727;52.134;5.052;2023-01-01T02:45:54;4.57;;;0.88;;
23115;SDS011;11727;52.134;5.052;2023-01-01T02:48:40;8.60;;;1.23;;
23115;SDS011;11727;52.134;5.052;2023-01-01T02:56:33;5.43;;;1.20;;
23115;SDS011;11727;52.134;5.052;2023-01-01T02:59:16;4.60;;;1.10;;
23115;SDS011;11727;52.134;5.052;2023-01-01T03:10:20;4.85;;;0.88;;
23115;SDS011;11727;52.134;5.052;2023-01-01T03:20:38;4.10;;;0.95;;
23115;SDS011;11727;52.134;5.052;2023-01-01T03:23:09;5.05;;;0.80;;
23115;SDS011;11727;52.134;5.052;2023-01-01T03:25:43;5.22;;;1.00;;
23115;SDS011;11727;52.134;5.052;2023-01-01T03:28:16;2.45;;;0.90;;
23115;SDS011;11727;52.134;5.052;2023-01-01T03:30:54;7.75;;;1.67;;
23115;SDS011;11727;52.134;5.052;2023-01-01T03:33:26;5.47;;;0.85;;
23115;SDS011;11727;52.134;5.052;2023-01-01T03:36:10;8.60;;;0.82;;
23115;SDS011;11727;52.134;5.052;2023-01-01T03:38:41;3.90;;;0.73;;
23115;SDS011;11727;52.134;5.052;2023-01-01T03:41:13;1.50;;;0.60;;
23115;SDS011;11727;52.134;5.052;2023-01-01T03:43:50;11.45;;;1.60;;
23115;SDS011;11727;52.134;5.052;2023-01-01T03:46:36;10.52;;;0.98;;
23115;SDS011;11727;52.134;5.052;2023-01-01T03:49:03;3.80;;;0.50;;
23115;SDS011;11727;52.134;5.052;2023-01-01T03:57:19;4.60;;;0.95;;
23115;SDS011;11727;52.134;5.052;2023-01-01T04:03:12;7.30;;;1.20;;
23115;SDS011;11727;52.134;5.052;2023-01-01T04:05:32;2.47;;;0.53;;
23115;SDS011;11727;52.134;5.052;2023-01-01T04:08:01;5.13;;;0.82;;
23115;SDS011;11727;52.134;5.052;2023-01-01T04:10:28;4.25;;;0.73;;
23115;SDS011;11727;52.134;5.052;2023-01-01T04:12:56;2.22;;;0.98;;
23115;SDS011;11727;52.134;5.052;2023-01-01T04:15:23;1.95;;;0.60;;
23115;SDS011;11727;52.134;5.052;2023-01-01T04:17:50;4.22;;;0.57;;
23115;SDS011;11727;52.134;5.052;2023-01-01T04:20:16;1.63;;;0.35;;
23115;SDS011;11727;52.134;5.052;2023-01-01T04:22:42;5.57;;;0.80;;
23115;SDS011;11727;52.134;5.052;2023-01-01T04:25:09;1.65;;;0.43;;
23115;SDS011;11727;52.134;5.052;2023-01-01T04:27:35;1.88;;;0.47;;
23115;SDS011;11727;52.134;5.052;2023-01-01T04:30:03;5.00;;;1.03;;
23115;SDS011;11727;52.134;5.052;2023-01-01T04:32:30;4.70;;;1.40;;
23115;SDS011;11727;52.134;5.052;2023-01-01T04:34:55;2.72;;;0.63;;
23115;SDS011;11727;52.134;5.052;2023-01-01T04:37:21;3.35;;;1.10;;
23115;SDS011;11727;52.134;5.052;2023-01-01T04:39:47;3.30;;;0.98;;
23115;SDS011;11727;52.134;5.052;2023-01-01T04:42:12;3.03;;;0.73;;
23115;SDS011;11727;52.134;5.052;2023-01-01T04:44:38;4.03;;;1.15;;
23115;SDS011;11727;52.134;5.052;2023-01-01T04:47:03;18.63;;;1.33;;
23115;SDS011;11727;52.134;5.052;2023-01-01T04:49:29;9.50;;;1.40;;
23115;SDS011;11727;52.134;5.052;2023-01-01T04:51:55;4.18;;;1.00;;
23115;SDS011;11727;52.134;5.052;2023-01-01T04:54:21;3.20;;;0.80;;
23115;SDS011;11727;52.134;5.052;2023-01-01T04:56:46;7.30;;;0.95;;
23115;SDS011;11727;52.134;5.052;2023-01-01T04:59:12;6.78;;;0.88;;
23115;SDS011;11727;52.134;5.052;2023-01-01T05:01:37;2.60;;;0.80;;
23115;SDS011;11727;52.134;5.052;2023-01-01T05:04:03;4.53;;;0.90;;
23115;SDS011;11727;52.134;5.052;2023-01-01T05:06:29;5.18;;;0.80;;
23115;SDS011;11727;52.134;5.052;2023-01-01T05:08:55;2.30;;;0.82;;
23115;SDS011;11727;52.134;5.052;2023-01-01T05:11:25;9.93;;;0.88;;
23115;SDS011;11727;52.134;5.052;2023-01-01T05:13:53;10.88;;;0.88;;
23115;SDS011;11727;52.134;5.052;2023-01-01T05:16:21;7.45;;;1.05;;
23115;SDS011;11727;52.134;5.052;2023-01-01T05:18:48;5.78;;;0.80;;
23115;SDS011;11727;52.134;5.052;2023-01-01T05:21:16;4.88;;;0.90;;
23115;SDS011;11727;52.134;5.052;2023-01-01T05:23:43;4.68;;;1.02;;
23115;SDS011;11727;52.134;5.052;2023-01-01T05:26:13;2.15;;;0.40;;
23115;SDS011;11727;52.134;5.052;2023-01-01T05:28:41;3.45;;;1.05;;
23115;SDS011;11727;52.134;5.052;2023-01-01T05:31:07;3.05;;;0.85;;
23115;SDS011;11727;52.134;5.052;2023-01-01T05:33:36;6.65;;;0.90;;
23115;SDS011;11727;52.134;5.052;2023-01-01T05:36:02;3.08;;;0.47;;
23115;SDS011;11727;52.134;5.052;2023-01-01T05:38:29;2.28;;;0.55;;
23115;SDS011;11727;52.134;5.052;2023-01-01T05:40:55;3.65;;;1.20;;
23115;SDS011;11727;52.134;5.052;2023-01-01T05:43:21;2.42;;;0.47;;
23115;SDS011;11727;52.134;5.052;2023-01-01T05:45:46;1.38;;;0.45;;
23115;SDS011;11727;52.134;5.052;2023-01-01T05:48:12;4.20;;;1.00;;
23115;SDS011;11727;52.134;5.052;2023-01-01T05:50:38;1.85;;;0.40;;
23115;SDS011;11727;52.134;5.052;2023-01-01T05:53:03;2.58;;;0.50;;
23115;SDS011;11727;52.134;5.052;2023-01-01T05:55:29;2.72;;;0.50;;
23115;SDS011;11727;52.134;5.052;2023-01-01T05:57:55;7.00;;;1.15;;
23115;SDS011;11727;52.134;5.052;2023-01-01T06:00:21;6.53;;;0.68;;
23115;SDS011;11727;52.134;5.052;2023-01-01T06:02:47;3.50;;;0.57;;
23115;SDS011;11727;52.134;5.052;2023-01-01T06:05:16;6.28;;;1.42;;
23115;SDS011;11727;52.134;5.052;2023-01-01T06:07:41;3.60;;;0.57;;
23115;SDS011;11727;52.134;5.052;2023-01-01T06:10:07;4.00;;;0.52;;
23115;SDS011;11727;52.134;5.052;2023-01-01T06:12:33;1.70;;;0.63;;
23115;SDS011;11727;52.134;5.052;2023-01-01T06:14:59;2.78;;;0.52;;
23115;SDS011;11727;52.134;5.052;2023-01-01T06:17:24;2.28;;;0.60;;
23115;SDS011;11727;52.134;5.052;2023-01-01T06:19:50;1.38;;;0.40;;
23115;SDS011;11727;52.134;5.052;2023-01-01T06:22:15;3.20;;;0.60;;
23115;SDS011;11727;52.134;5.052;2023-01-01T06:24:41;1.65;;;0.52;;
23115;SDS011;11727;52.134;5.052;2023-01-01T06:27:07;6.22;;;0.68;;
23115;SDS011;11727;52.134;5.052;2023-01-01T06:29:32;2.83;;;0.52;;
23115;SDS011;11727;52.134;5.052;2023-01-01T06:31:58;10.23;;;1.65;;
23115;SDS011;11727;52.134;5.052;2023-01-01T06:34:23;3.05;;;0.73;;
23115;SDS011;11727;52.134;5.052;2023-01-01T06:36:49;1.10;;;0.30;;
23115;SDS011;11727;52.134;5.052;2023-01-01T06:39:15;4.95;;;0.65;;
23115;SDS011;11727;52.134;5.052;2023-01-01T06:41:40;5.53;;;0.38;;
23115;SDS011;11727;52.134;5.052;2023-01-01T06:44:06;2.10;;;0.32;;
23115;SDS011;11727;52.134;5.052;2023-01-01T06:46:32;2.90;;;0.45;;
23115;SDS011;11727;52.134;5.052;2023-01-01T06:49:04;2.80;;;0.38;;
23115;SDS011;11727;52.134;5.052;2023-01-01T06:51:31;7.07;;;0.60;;
23115;SDS011;11727;52.134;5.052;2023-01-01T06:54:01;4.68;;;0.30;;
23115;SDS011;11727;52.134;5.052;2023-01-01T06:56:28;3.72;;;0.47;;
23115;SDS011;11727;52.134;5.052;2023-01-01T06:58:54;2.10;;;0.50;;
23115;SDS011;11727;52.134;5.052;2023-01-01T07:01:21;4.75;;;0.60;;
23115;SDS011;11727;52.134;5.052;2023-01-01T07:03:52;5.75;;;1.15;;
23115;SDS011;11727;52.134;5.052;2023-01-01T07:06:22;4.40;;;0.80;;
23115;SDS011;11727;52.134;5.052;2023-01-01T07:08:48;6.30;;;0.43;;
23115;SDS011;11727;52.134;5.052;2023-01-01T07:11:14;2.28;;;0.35;;
23115;SDS011;11727;52.134;5.052;2023-01-01T07:13:40;5.97;;;0.50;;
23115;SDS011;11727;52.134;5.052;2023-01-01T07:16:06;10.23;;;0.70;;
23115;SDS011;11727;52.134;5.052;2023-01-01T07:18:32;4.97;;;0.75;;
23115;SDS011;11727;52.134;5.052;2023-01-01T07:20:59;1.65;;;0.40;;
23115;SDS011;11727;52.134;5.052;2023-01-01T07:23:27;11.95;;;0.80;;
23115;SDS011;11727;52.134;5.052;2023-01-01T07:25:54;4.47;;;0.98;;
23115;SDS011;11727;52.134;5.052;2023-01-01T07:28:21;2.17;;;0.73;;
23115;SDS011;11727;52.134;5.052;2023-01-01T07:30:48;0.63;;;0.28;;
23115;SDS011;11727;52.134;5.052;2023-01-01T07:33:15;1.42;;;0.17;;
23115;SDS011;11727;52.134;5.052;2023-01-01T07:35:42;7.18;;;0.90;;
23115;SDS011;11727;52.134;5.052;2023-01-01T07:38:11;4.38;;;0.30;;
23115;SDS011;11727;52.134;5.052;2023-01-01T07:40:38;0.88;;;0.30;;
23115;SDS011;11727;52.134;5.052;2023-01-01T07:43:04;8.70;;;1.10;;
23115;SDS011;11727;52.134;5.052;2023-01-01T07:45:31;5.10;;;0.52;;
23115;SDS011;11727;52.134;5.052;2023-01-01T07:47:58;2.83;;;0.38;;
23115;SDS011;11727;52.134;5.052;2023-01-01T07:50:25;2.90;;;0.73;;
23115;SDS011;11727;52.134;5.052;2023-01-01T07:52:52;2.90;;;0.75;;
23115;SDS011;11727;52.134;5.052;2023-01-01T07:55:18;5.97;;;0.65;;
23115;SDS011;11727;52.134;5.052;2023-01-01T07:57:44;8.35;;;0.65;;
23115;SDS011;11727;52.134;5.052;2023-01-01T08:00:12;5.22;;;0.40;;
23115;SDS011;11727;52.134;5.052;2023-01-01T08:02:40;0.85;;;0.20;;
23115;SDS011;11727;52.134;5.052;2023-01-01T08:05:06;2.55;;;0.50;;
23115;SDS011;11727;52.134;5.052;2023-01-01T08:07:32;2.00;;;0.30;;
23115;SDS011;11727;52.134;5.052;2023-01-01T08:09:58;0.75;;;0.30;;
23115;SDS011;11727;52.134;5.052;2023-01-01T08:12:24;1.75;;;0.40;;
23115;SDS011;11727;52.134;5.052;2023-01-01T08:14:49;8.85;;;0.88;;
23115;SDS011;11727;52.134;5.052;2023-01-01T08:17:15;4.10;;;1.10;;
23115;SDS011;11727;52.134;5.052;2023-01-01T08:19:41;1.85;;;0.55;;
23115;SDS011;11727;52.134;5.052;2023-01-01T08:22:06;5.85;;;0.70;;
23115;SDS011;11727;52.134;5.052;2023-01-01T08:24:32;0.57;;;0.15;;
23115;SDS011;11727;52.134;5.052;2023-01-01T08:26:57;5.78;;;1.10;;
23115;SDS011;11727;52.134;5.052;2023-01-01T08:29:23;3.25;;;0.45;;
23115;SDS011;11727;52.134;5.052;2023-01-01T08:31:49;2.05;;;0.35;;
23115;SDS011;11727;52.134;5.052;2023-01-01T08:34:14;5.07;;;0.40;;
23115;SDS011;11727;52.134;5.052;2023-01-01T08:36:40;3.85;;;1.10;;
23115;SDS011;11727;52.134;5.052;2023-01-01T08:39:06;3.38;;;0.45;;
23115;SDS011;11727;52.134;5.052;2023-01-01T08:41:32;2.58;;;0.30;;
23115;SDS011;11727;52.134;5.052;2023-01-01T08:43:58;3.35;;;0.57;;
23115;SDS011;11727;52.134;5.052;2023-01-01T08:46:24;2.30;;;0.40;;
23115;SDS011;11727;52.134;5.052;2023-01-01T08:48:50;5.18;;;0.40;;
23115;SDS011;11727;52.134;5.052;2023-01-01T08:51:15;5.03;;;0.20;;
23115;SDS011;11727;52.134;5.052;2023-01-01T08:53:41;5.97;;;0.30;;
23115;SDS011;11727;52.134;5.052;2023-01-01T08:56:08;1.92;;;0.43;;
23115;SDS011;11727;52.134;5.052;2023-01-01T08:58:36;3.10;;;0.40;;
23115;SDS011;11727;52.134;5.052;2023-01-01T09:01:03;3.10;;;0.30;;
23115;SDS011;11727;52.134;5.052;2023-01-01T09:03:30;2.30;;;0.50;;
23115;SDS011;11727;52.134;5.052;2023-01-01T09:05:56;5.45;;;0.60;;
23115;SDS011;11727;52.134;5.052;2023-01-01T09:08:21;2.15;;;0.32;;
23115;SDS011;11727;52.134;5.052;2023-01-01T09:10:48;5.70;;;0.63;;
23115;SDS011;11727;52.134;5.052;2023-01-01T09:13:16;9.30;;;1.10;;
23115;SDS011;11727;52.134;5.052;2023-01-01T09:15:44;13.38;;;1.27;;
23115;SDS011;11727;52.134;5.052;2023-01-01T09:18:10;7.85;;;1.10;;
23115;SDS011;11727;52.134;5.052;2023-01-01T09:20:36;2.50;;;0.40;;
23115;SDS011;11727;52.134;5.052;2023-01-01T09:23:02;1.67;;;0.20;;
23115;SDS011;11727;52.134;5.052;2023-01-01T09:25:28;5.63;;;0.70;;
23115;SDS011;11727;52.134;5.052;2023-01-01T09:27:57;3.35;;;0.70;;
23115;SDS011;11727;52.134;5.052;2023-01-01T09:30:23;0.50;;;0.20;;
23115;SDS011;11727;52.134;5.052;2023-01-01T09:32:49;5.47;;;0.88;;
23115;SDS011;11727;52.134;5.052;2023-01-01T09:35:14;4.00;;;0.80;;
23115;SDS011;11727;52.134;5.052;2023-01-01T09:37:40;4.18;;;0.85;;
23115;SDS011;11727;52.134;5.052;2023-01-01T09:46:00;4.10;;;0.55;;
23115;SDS011;11727;52.134;5.052;2023-01-01T09:48:30;1.70;;;0.30;;
23115;SDS011;11727;52.134;5.052;2023-01-01T09:50:57;5.53;;;0.93;;
23115;SDS011;11727;52.134;5.052;2023-01-01T09:56:02;2.72;;;0.55;;
23115;SDS011;11727;52.134;5.052;2023-01-01T09:58:32;6.35;;;1.45;;
23115;SDS011;11727;52.134;5.052;2023-01-01T10:03:46;4.15;;;0.75;;
23115;SDS011;11727;52.134;5.052;2023-01-01T10:06:32;5.05;;;0.90;;
23115;SDS011;11727;52.134;5.052;2023-01-01T10:14:06;7.90;;;1.00;;
23115;SDS011;11727;52.134;5.052;2023-01-01T10:16:46;8.02;;;1.02;;
23115;SDS011;11727;52.134;5.052;2023-01-01T10:22:07;6.20;;;1.00;;
23115;SDS011;11727;52.134;5.052;2023-01-01T10:30:16;3.85;;;0.95;;
23115;SDS011;11727;52.134;5.052;2023-01-01T10:32:47;7.40;;;0.93;;
23115;SDS011;11727;52.134;5.052;2023-01-01T10:35:15;6.07;;;0.60;;
23115;SDS011;11727;52.134;5.052;2023-01-01T10:37:42;4.38;;;0.55;;
23115;SDS011;11727;52.134;5.052;2023-01-01T10:40:21;4.88;;;0.40;;
23115;SDS011;11727;52.134;5.052;2023-01-01T10:42:54;3.83;;;0.80;;
23115;SDS011;11727;52.134;5.052;2023-01-01T10:48:21;5.07;;;0.63;;
23115;SDS011;11727;52.134;5.052;2023-01-01T10:50:53;7.03;;;0.68;;
23115;SDS011;11727;52.134;5.052;2023-01-01T10:56:07;9.48;;;1.33;;
23115;SDS011;11727;52.134;5.052;2023-01-01T10:58:47;6.65;;;1.00;;
23115;SDS011;11727;52.134;5.052;2023-01-01T11:01:27;4.68;;;0.75;;
23115;SDS011;11727;52.134;5.052;2023-01-01T11:06:37;7.80;;;0.70;;
23115;SDS011;11727;52.134;5.052;2023-01-01T11:09:06;6.75;;;0.60;;
23115;SDS011;11727;52.134;5.052;2023-01-01T11:11:53;5.57;;;0.43;;
23115;SDS011;11727;52.134;5.052;2023-01-01T11:14:24;6.70;;;0.90;;
23115;SDS011;11727;52.134;5.052;2023-01-01T11:16:52;1.67;;;0.47;;
23115;SDS011;11727;52.134;5.052;2023-01-01T11:19:23;6.07;;;0.77;;
23115;SDS011;11727;52.134;5.052;2023-01-01T11:21:53;5.47;;;0.40;;
23115;SDS011;11727;52.134;5.052;2023-01-01T11:24:23;11.15;;;1.13;;
23115;SDS011;11727;52.134;5.052;2023-01-01T11:26:49;5.03;;;1.73;;
23115;SDS011;11727;52.134;5.052;2023-01-01T11:29:26;9.85;;;0.85;;
23115;SDS011;11727;52.134;5.052;2023-01-01T11:31:53;6.53;;;0.87;;
23115;SDS011;11727;52.134;5.052;2023-01-01T11:36:51;9.32;;;0.63;;
23115;SDS011;11727;52.134;5.052;2023-01-01T11:41:55;3.42;;;0.55;;
23115;SDS011;11727;52.134;5.052;2023-01-01T11:44:28;7.88;;;0.90;;
23115;SDS011;11727;52.134;5.052;2023-01-01T11:47:01;5.60;;;1.20;;
23115;SDS011;11727;52.134;5.052;2023-01-01T11:49:29;5.60;;;0.90;;
23115;SDS011;11727;52.134;5.052;2023-01-01T11:51:56;6.07;;;0.65;;
23115;SDS011;11727;52.134;5.052;2023-01-01T11:54:31;6.53;;;0.82;;
23115;SDS011;11727;52.134;5.052;2023-01-01T11:59:29;9.20;;;0.85;;
23115;SDS011;11727;52.134;5.052;2023-01-01T12:02:03;7.72;;;1.08;;
23115;SDS011;11727;52.134;5.052;2023-01-01T12:04:43;6.18;;;0.80;;
23115;SDS011;11727;52.134;5.052;2023-01-01T12:07:18;5.55;;;0.93;;
23115;SDS011;11727;52.134;5.052;2023-01-01T12:09:58;3.08;;;1.00;;
23115;SDS011;11727;52.134;5.052;2023-01-01T12:12:41;4.78;;;0.85;;
23115;SDS011;11727;52.134;5.052;2023-01-01T12:15:37;3.83;;;0.88;;
23115;SDS011;11727;52.134;5.052;2023-01-01T12:21:06;3.75;;;0.93;;
23115;SDS011;11727;52.134;5.052;2023-01-01T12:23:40;13.15;;;1.60;;
23115;SDS011;11727;52.134;5.052;2023-01-01T12:28:48;1.95;;;0.70;;
23115;SDS011;11727;52.134;5.052;2023-01-01T12:40:40;14.45;;;1.35;;
23115;SDS011;11727;52.134;5.052;2023-01-01T12:46:02;6.22;;;0.70;;
23115;SDS011;11727;52.134;5.052;2023-01-01T12:57:28;10.73;;;1.35;;
23115;SDS011;11727;52.134;5.052;2023-01-01T13:00:18;10.75;;;0.75;;
23115;SDS011;11727;52.134;5.052;2023-01-01T13:03:07;3.55;;;0.45;;
23115;SDS011;11727;52.134;5.052;2023-01-01T13:05:52;10.07;;;1.13;;
23115;SDS011;11727;52.134;5.052;2023-01-01T13:08:20;11.18;;;0.82;;
23115;SDS011;11727;52.134;5.052;2023-01-01T13:10:47;7.15;;;1.38;;
23115;SDS011;11727;52.134;5.052;2023-01-01T13:13:14;12.05;;;1.02;;
23115;SDS011;11727;52.134;5.052;2023-01-01T13:15:46;1.42;;;0.43;;
23115;SDS011;11727;52.134;5.052;2023-01-01T13:21:01;5.18;;;1.20;;
23115;SDS011;11727;52.134;5.052;2023-01-01T13:23:42;2.45;;;0.60;;
23115;SDS011;11727;52.134;5.052;2023-01-01T13:31:16;3.13;;;1.00;;
23115;SDS011;11727;52.134;5.052;2023-01-01T13:33:42;5.43;;;0.73;;
23115;SDS011;11727;52.134;5.052;2023-01-01T13:44:21;8.32;;;1.15;;
23115;SDS011;11727;52.134;5.052;2023-01-01T13:47:00;5.30;;;1.05;;
23115;SDS011;11727;52.134;5.052;2023-01-01T14:04:11;7.95;;;1.17;;
23115;SDS011;11727;52.134;5.052;2023-01-01T14:06:33;10.32;;;1.23;;
23115;SDS011;11727;52.134;5.052;2023-01-01T14:11:37;14.55;;;1.48;;
23115;SDS011;11727;52.134;5.052;2023-01-01T14:14:16;4.63;;;1.30;;
23115;SDS011;11727;52.134;5.052;2023-01-01T14:16:49;4.13;;;0.88;;
23115;SDS011;11727;52.134;5.052;2023-01-01T14:19:16;3.28;;;0.52;;
23115;SDS011;11727;52.134;5.052;2023-01-01T14:21:42;6.28;;;1.20;;
23115;SDS011;11727;52.134;5.052;2023-01-01T14:24:09;4.05;;;0.80;;
23115;SDS011;11727;52.134;5.052;2023-01-01T14:26:40;6.40;;;0.93;;
23115;SDS011;11727;52.134;5.052;2023-01-01T14:29:07;8.73;;;0.95;;
23115;SDS011;11727;52.134;5.052;2023-01-01T14:36:51;8.77;;;1.40;;
23115;SDS011;11727;52.134;5.052;2023-01-01T14:39:23;3.53;;;1.17;;
23115;SDS011;11727;52.134;5.052;2023-01-01T14:41:52;10.77;;;1.25;;
23115;SDS011;11727;52.134;5.052;2023-01-01T14:44:20;11.60;;;1.20;;
23115;SDS011;11727;52.134;5.052;2023-01-01T14:46:51;6.25;;;1.13;;
23115;SDS011;11727;52.134;5.052;2023-01-01T14:49:22;4.78;;;0.70;;
23115;SDS011;11727;52.134;5.052;2023-01-01T14:51:57;7.13;;;0.95;;
23115;SDS011;11727;52.134;5.052;2023-01-01T14:54:36;10.25;;;1.02;;
23115;SDS011;11727;52.134;5.052;2023-01-01T14:57:22;5.93;;;0.60;;
23115;SDS011;11727;52.134;5.052;2023-01-01T14:59:54;6.53;;;0.82;;
23115;SDS011;11727;52.134;5.052;2023-01-01T15:02:24;5.47;;;0.82;;
23115;SDS011;11727;52.134;5.052;2023-01-01T15:04:53;4.30;;;1.08;;
23115;SDS011;11727;52.134;5.052;2023-01-01T15:07:23;7.93;;;1.58;;
23115;SDS011;11727;52.134;5.052;2023-01-01T15:09:51;10.32;;;1.52;;
23115;SDS011;11727;52.134;5.052;2023-01-01T15:12:21;6.55;;;1.10;;
23115;SDS011;11727;52.134;5.052;2023-01-01T15:14:48;11.63;;;1.83;;
23115;SDS011;11727;52.134;5.052;2023-01-01T15:17:16;9.48;;;1.38;;
23115;SDS011;11727;52.134;5.052;2023-01-01T15:19:45;5.63;;;1.35;;
23115;SDS011;11727;52.134;5.052;2023-01-01T15:22:23;5.85;;;1.45;;
23115;SDS011;11727;52.134;5.052;2023-01-01T15:24:52;3.53;;;1.60;;
23115;SDS011;11727;52.134;5.052;2023-01-01T15:27:28;11.23;;;1.55;;
23115;SDS011;11727;52.134;5.052;2023-01-01T15:32:31;5.65;;;1.10;;
23115;SDS011;11727;52.134;5.052;2023-01-01T15:34:59;5.93;;;1.08;;
23115;SDS011;11727;52.134;5.052;2023-01-01T15:39:58;4.38;;;1.13;;
23115;SDS011;11727;52.134;5.052;2023-01-01T15:42:29;5.20;;;1.00;;
23115;SDS011;11727;52.134;5.052;2023-01-01T15:45:07;6.88;;;1.30;;
23115;SDS011;11727;52.134;5.052;2023-01-01T15:47:36;9.25;;;1.75;;
23115;SDS011;11727;52.134;5.052;2023-01-01T15:50:06;8.00;;;1.65;;
23115;SDS011;11727;52.134;5.052;2023-01-01T15:52:34;6.75;;;1.00;;
23115;SDS011;11727;52.134;5.052;2023-01-01T15:55:00;7.85;;;1.77;;
23115;SDS011;11727;52.134;5.052;2023-01-01T15:57:26;12.18;;;1.70;;
23115;SDS011;11727;52.134;5.052;2023-01-01T15:59:52;9.65;;;2.95;;
23115;SDS011;11727;52.134;5.052;2023-01-01T16:02:20;8.20;;;1.70;;
23115;SDS011;11727;52.134;5.052;2023-01-01T16:07:23;10.88;;;1.80;;
23115;SDS011;11727;52.134;5.052;2023-01-01T16:09:50;13.40;;;1.53;;
23115;SDS011;11727;52.134;5.052;2023-01-01T16:12:17;7.05;;;1.65;;
23115;SDS011;11727;52.134;5.052;2023-01-01T16:14:43;4.85;;;1.52;;
23115;SDS011;11727;52.134;5.052;2023-01-01T16:17:13;9.82;;;1.80;;
23115;SDS011;11727;52.134;5.052;2023-01-01T16:19:40;9.90;;;1.73;;
23115;SDS011;11727;52.134;5.052;2023-01-01T16:22:08;6.97;;;2.05;;
23115;SDS011;11727;52.134;5.052;2023-01-01T16:24:39;6.15;;;1.65;;
23115;SDS011;11727;52.134;5.052;2023-01-01T16:27:05;4.85;;;1.58;;
23115;SDS011;11727;52.134;5.052;2023-01-01T16:29:31;2.60;;;0.80;;
23115;SDS011;11727;52.134;5.052;2023-01-01T16:31:56;7.40;;;1.13;;
23115;SDS011;11727;52.134;5.052;2023-01-01T16:34:22;6.03;;;1.70;;
23115;SDS011;11727;52.134;5.052;2023-01-01T16:36:47;10.13;;;0.88;;
23115;SDS011;11727;52.134;5.052;2023-01-01T16:39:13;6.53;;;1.67;;
23115;SDS011;11727;52.134;5.052;2023-01-01T16:41:39;6.63;;;1.88;;
23115;SDS011;11727;52.134;5.052;2023-01-01T16:44:09;5.40;;;1.13;;
23115;SDS011;11727;52.134;5.052;2023-01-01T16:46:36;7.95;;;1.10;;
23115;SDS011;11727;52.134;5.052;2023-01-01T16:49:02;9.23;;;1.27;;
23115;SDS011;11727;52.134;5.052;2023-01-01T16:51:28;9.15;;;1.17;;
23115;SDS011;11727;52.134;5.052;2023-01-01T16:53:54;13.65;;;2.53;;
23115;SDS011;11727;52.134;5.052;2023-01-01T16:56:21;4.55;;;1.27;;
23115;SDS011;11727;52.134;5.052;2023-01-01T16:58:47;8.73;;;0.90;;
23115;SDS011;11727;52.134;5.052;2023-01-01T17:01:13;5.72;;;1.35;;
23115;SDS011;11727;52.134;5.052;2023-01-01T17:03:38;6.20;;;1.17;;
23115;SDS011;11727;52.134;5.052;2023-01-01T17:06:05;10.63;;;1.73;;
23115;SDS011;11727;52.134;5.052;2023-01-01T17:08:32;9.38;;;1.55;;
23115;SDS011;11727;52.134;5.052;2023-01-01T17:11:03;8.00;;;1.53;;
23115;SDS011;11727;52.134;5.052;2023-01-01T17:13:31;14.50;;;1.40;;
23115;SDS011;11727;52.134;5.052;2023-01-01T17:15:58;3.15;;;1.08;;
23115;SDS011;11727;52.134;5.052;2023-01-01T17:18:24;4.65;;;1.17;;
23115;SDS011;11727;52.134;5.052;2023-01-01T17:20:49;10.45;;;1.48;;
23115;SDS011;11727;52.134;5.052;2023-01-01T17:23:15;3.78;;;0.98;;
23115;SDS011;11727;52.134;5.052;2023-01-01T17:25:41;7.70;;;1.20;;
23115;SDS011;11727;52.134;5.052;2023-01-01T17:28:06;6.88;;;1.33;;
23115;SDS011;11727;52.134;5.052;2023-01-01T17:30:32;8.90;;;1.55;;
23115;SDS011;11727;52.134;5.052;2023-01-01T17:32:57;3.40;;;1.10;;
23115;SDS011;11727;52.134;5.052;2023-01-01T17:35:23;6.75;;;1.85;;